createdAt,value
2022-09-25T00:00:05.914Z,13.35
2022-09-25T00:02:34.970Z,13.80
2022-09-25T00:05:04.151Z,13.85
2022-09-25T00:07:36.114Z,18.60
2022-09-25T00:10:05.880Z,16.30
2022-09-25T00:12:39.470Z,15.98
2022-09-25T00:15:13.891Z,14.63
2022-09-25T00:17:43.127Z,11.68
2022-09-25T00:20:16.656Z,15.52
2022-09-25T00:22:50.851Z,15.35
2022-09-25T00:25:20.698Z,12.57
2022-09-25T00:27:56.368Z,17.67
2022-09-25T00:30:35.541Z,12.50
2022-09-25T00:33:08.806Z,15.15
2022-09-25T00:35:40.200Z,14.57
2022-09-25T00:38:11.920Z,20.48
2022-09-25T00:40:43.657Z,16.23
2022-09-25T00:43:16.918Z,15.65
2022-09-25T00:45:50.170Z,15.77
2022-09-25T00:48:20.657Z,12.38
2022-09-25T00:50:55.401Z,17.45
2022-09-25T00:53:30.719Z,14.85
2022-09-25T00:56:04.789Z,15.98
2022-09-25T00:58:37.538Z,13.60
2022-09-25T01:01:07.321Z,15.95
2022-09-25T01:03:48.374Z,14.63
2022-09-25T01:06:30.650Z,15.98
2022-09-25T01:09:00.455Z,15.55
2022-09-25T01:11:32.542Z,14.20
2022-09-25T01:14:06.608Z,16.05
2022-09-25T01:16:45.975Z,15.25
2022-09-25T01:19:27.881Z,19.02
2022-09-25T01:22:07.498Z,16.67
2022-09-25T01:25:00.309Z,17.35
2022-09-25T01:27:55.799Z,17.42
2022-09-25T01:30:33.545Z,16.30
2022-09-25T01:33:14.035Z,19.52
2022-09-25T01:35:55.394Z,18.30
2022-09-25T01:38:33.799Z,20.23
2022-09-25T01:41:17.165Z,18.08
2022-09-25T01:43:52.638Z,16.08
2022-09-25T01:46:26.350Z,15.45
2022-09-25T01:48:59.072Z,18.50
2022-09-25T01:51:31.114Z,17.25
2022-09-25T01:54:04.360Z,16.58
2022-09-25T01:56:39.529Z,16.73
2022-09-25T01:59:11.957Z,18.58
2022-09-25T02:01:44.460Z,19.83
2022-09-25T02:04:18.120Z,18.85
2022-09-25T02:06:50.138Z,22.80
2022-09-25T02:09:24.079Z,20.23
2022-09-25T02:11:57.424Z,21.50
2022-09-25T02:14:39.303Z,19.73
2022-09-25T02:17:36.779Z,21.85
2022-09-25T02:20:28.265Z,23.60
2022-09-25T02:23:00.536Z,22.40
2022-09-25T02:25:37.067Z,19.33
2022-09-25T02:28:09.027Z,19.83
2022-09-25T02:30:39.330Z,21.27
2022-09-25T02:33:13.327Z,20.27
2022-09-25T02:35:43.025Z,19.35
2022-09-25T02:38:17.949Z,22.85
2022-09-25T02:40:56.282Z,21.42
2022-09-25T02:43:43.191Z,19.88
2022-09-25T02:46:19.594Z,21.23
2022-09-25T02:48:53.993Z,20.90
2022-09-25T02:51:30.565Z,22.00
2022-09-25T02:54:07.815Z,23.33
2022-09-25T02:56:41.028Z,24.35
2022-09-25T02:59:15.728Z,24.33
2022-09-25T03:01:44.769Z,24.38
2022-09-25T03:04:17.653Z,22.05
2022-09-25T03:06:49.033Z,22.40
2022-09-25T03:09:20.903Z,21.15
2022-09-25T03:11:49.809Z,23.08
2022-09-25T03:14:18.002Z,21.58
2022-09-25T03:16:48.642Z,22.75
2022-09-25T03:19:19.690Z,22.63
2022-09-25T03:21:48.153Z,21.42
2022-09-25T03:24:16.893Z,22.25
2022-09-25T03:26:45.474Z,20.83
2022-09-25T03:29:14.798Z,25.20
2022-09-25T03:31:43.135Z,23.60
2022-09-25T03:34:13.683Z,22.35
2022-09-25T03:36:46.914Z,23.30
2022-09-25T03:39:17.726Z,25.40
2022-09-25T03:41:47.692Z,26.98
2022-09-25T03:44:15.843Z,28.33
2022-09-25T03:46:43.901Z,29.20
2022-09-25T03:49:12.726Z,29.52
2022-09-25T03:51:41.999Z,30.27
2022-09-25T03:54:11.527Z,28.67
2022-09-25T03:56:40.434Z,29.20
2022-09-25T03:59:08.554Z,29.48
2022-09-25T04:01:37.011Z,31.45
2022-09-25T04:04:05.237Z,33.13
2022-09-25T04:06:33.487Z,33.50
2022-09-25T04:09:01.547Z,33.67
2022-09-25T04:11:31.958Z,35.10
2022-09-25T04:14:00.333Z,36.17
2022-09-25T04:16:29.406Z,36.08
2022-09-25T04:18:57.591Z,39.53
2022-09-25T04:21:25.840Z,38.70
2022-09-25T04:24:11.292Z,39.53
2022-09-25T04:26:41.144Z,39.72
2022-09-25T04:29:09.316Z,40.67
2022-09-25T04:31:37.541Z,40.25
2022-09-25T04:34:04.801Z,39.75
2022-09-25T04:36:32.909Z,38.45
2022-09-25T04:39:00.961Z,42.50
2022-09-25T04:41:29.073Z,42.03
2022-09-25T04:43:58.475Z,43.28
2022-09-25T04:46:26.499Z,41.88
2022-09-25T04:48:54.600Z,44.50
2022-09-25T04:51:23.028Z,39.47
2022-09-25T04:53:51.763Z,40.97
2022-09-25T04:56:19.751Z,48.67
2022-09-25T04:58:49.695Z,46.28
2022-09-25T05:01:21.456Z,45.75
2022-09-25T05:03:53.163Z,46.28
2022-09-25T05:06:21.506Z,52.83
2022-09-25T05:08:50.383Z,50.47
2022-09-25T05:11:18.603Z,48.05
2022-09-25T05:13:49.998Z,48.67
2022-09-25T05:16:21.232Z,49.20
2022-09-25T05:18:49.401Z,47.55
2022-09-25T05:21:17.506Z,48.92
2022-09-25T05:23:45.659Z,47.10
2022-09-25T05:26:13.786Z,48.22
2022-09-25T05:28:42.513Z,43.47
2022-09-25T05:31:11.006Z,43.90
2022-09-25T05:33:41.060Z,39.50
2022-09-25T05:36:09.492Z,43.38
2022-09-25T05:38:39.980Z,40.88
2022-09-25T05:41:09.769Z,37.08
2022-09-25T05:43:41.306Z,41.90
2022-09-25T05:46:09.972Z,39.97
2022-09-25T05:48:40.032Z,40.13
2022-09-25T05:51:08.615Z,39.92
2022-09-25T05:53:37.038Z,38.78
2022-09-25T05:56:07.371Z,42.10
2022-09-25T05:58:36.574Z,39.25
2022-09-25T06:01:06.271Z,39.53
2022-09-25T06:03:34.440Z,38.38
2022-09-25T06:06:04.035Z,38.60
2022-09-25T06:08:35.525Z,42.33
2022-09-25T06:11:05.186Z,39.55
2022-09-25T06:13:35.178Z,44.50
2022-09-25T06:16:04.121Z,39.38
2022-09-25T06:18:33.337Z,36.60
2022-09-25T06:21:04.551Z,37.58
2022-09-25T06:23:33.823Z,40.05
2022-09-25T06:26:03.009Z,33.38
2022-09-25T06:28:31.769Z,35.10
2022-09-25T06:31:02.341Z,32.33
2022-09-25T06:33:31.207Z,37.10
2022-09-25T06:36:00.400Z,33.03
2022-09-25T06:38:30.402Z,34.70
2022-09-25T06:41:00.871Z,32.63
2022-09-25T06:43:31.309Z,33.70
2022-09-25T06:46:03.813Z,33.15
2022-09-25T06:48:32.844Z,34.92
2022-09-25T06:51:02.069Z,33.90
2022-09-25T06:53:31.553Z,33.05
2022-09-25T06:56:00.779Z,35.45
2022-09-25T06:58:30.459Z,31.55
2022-09-25T07:00:59.559Z,30.65
2022-09-25T07:03:45.490Z,29.38
2022-09-25T07:06:15.670Z,33.15
2022-09-25T07:08:46.249Z,26.27
2022-09-25T07:11:16.598Z,30.48
2022-09-25T07:13:45.383Z,28.08
2022-09-25T07:16:15.701Z,26.73
2022-09-25T07:18:44.748Z,26.42
2022-09-25T07:21:14.867Z,26.73
2022-09-25T07:23:43.576Z,25.45
2022-09-25T07:26:15.202Z,25.52
2022-09-25T07:28:45.043Z,26.52
2022-09-25T07:31:16.064Z,23.98
2022-09-25T07:33:44.615Z,25.40
2022-09-25T07:36:13.891Z,25.38
2022-09-25T07:38:42.250Z,23.63
2022-09-25T07:41:13.961Z,24.23
2022-09-25T07:43:43.407Z,26.88
2022-09-25T07:46:12.483Z,25.58
2022-09-25T07:48:40.953Z,26.25
2022-09-25T07:51:13.142Z,25.90
2022-09-25T07:53:42.732Z,24.33
2022-09-25T07:56:12.208Z,25.85
2022-09-25T07:58:42.617Z,27.98
2022-09-25T08:01:13.222Z,24.95
2022-09-25T08:03:41.670Z,25.10
2022-09-25T08:06:13.276Z,24.80
2022-09-25T08:08:44.594Z,25.73
2022-09-25T08:11:14.910Z,23.58
2022-09-25T08:13:45.056Z,26.42
2022-09-25T08:16:14.996Z,26.85
2022-09-25T08:18:45.452Z,25.67
2022-09-25T08:21:15.642Z,26.80
2022-09-25T08:23:47.902Z,25.00
2022-09-25T08:26:16.453Z,27.70
2022-09-25T08:28:46.359Z,27.70
2022-09-25T08:31:15.417Z,26.88
2022-09-25T08:33:45.986Z,29.27
2022-09-25T08:36:14.836Z,25.15
2022-09-25T08:38:43.354Z,27.13
2022-09-25T08:41:17.553Z,24.63
2022-09-25T08:43:58.215Z,24.25
2022-09-25T08:46:58.335Z,24.98
2022-09-25T08:49:31.751Z,25.42
2022-09-25T08:52:04.145Z,24.15
2022-09-25T08:54:35.102Z,24.55
2022-09-25T08:57:13.009Z,24.23
2022-09-25T08:59:47.337Z,24.75
2022-09-25T09:02:18.654Z,33.17
2022-09-25T09:04:51.275Z,24.70
2022-09-25T09:07:27.206Z,27.23
2022-09-25T09:10:02.655Z,27.20
2022-09-25T09:12:37.997Z,26.33
2022-09-25T09:15:19.157Z,30.40
2022-09-25T09:17:47.304Z,25.98
2022-09-25T09:20:19.029Z,29.33
2022-09-25T09:22:52.708Z,25.25
2022-09-25T09:25:29.181Z,25.92
2022-09-25T09:28:26.711Z,25.30
2022-09-25T09:31:03.513Z,27.50
2022-09-25T09:33:42.211Z,23.98
2022-09-25T09:36:16.591Z,28.15
2022-09-25T09:38:57.535Z,25.40
2022-09-25T09:41:39.007Z,27.98
2022-09-25T09:44:25.419Z,23.25
2022-09-25T09:47:04.647Z,23.75
2022-09-25T09:49:37.561Z,24.30
2022-09-25T09:52:11.108Z,23.05
2022-09-25T09:54:46.322Z,26.10
2022-09-25T09:57:22.950Z,24.40
2022-09-25T09:59:59.343Z,22.77
2022-09-25T10:02:44.366Z,21.70
2022-09-25T10:05:19.153Z,22.42
2022-09-25T10:07:49.161Z,22.73
2022-09-25T10:10:19.383Z,22.35
2022-09-25T10:12:50.868Z,21.88
2022-09-25T10:15:28.066Z,23.33
2022-09-25T10:18:01.556Z,22.00
2022-09-25T10:20:37.900Z,18.23
2022-09-25T10:23:09.862Z,21.42
2022-09-25T10:25:41.907Z,19.88
2022-09-25T10:28:27.517Z,18.48
2022-09-25T10:30:56.847Z,16.23
2022-09-25T10:33:27.867Z,17.23
2022-09-25T10:35:56.163Z,16.33
2022-09-25T10:38:32.891Z,17.02
2022-09-25T10:41:05.047Z,18.13
2022-09-25T10:43:33.713Z,16.95
2022-09-25T10:46:13.313Z,16.95
2022-09-25T10:49:01.139Z,13.75
2022-09-25T10:51:29.329Z,14.57
2022-09-25T10:54:15.116Z,15.85
2022-09-25T10:56:44.033Z,13.77
2022-09-25T10:59:21.126Z,15.13
2022-09-25T11:01:51.543Z,18.35
2022-09-25T11:04:25.911Z,14.43
2022-09-25T11:07:00.463Z,14.40
2022-09-25T11:09:34.442Z,16.25
2022-09-25T11:12:09.533Z,13.65
2022-09-25T11:14:38.030Z,15.90
2022-09-25T11:17:08.211Z,18.80
2022-09-25T11:19:39.223Z,19.55
2022-09-25T11:22:17.673Z,22.55
2022-09-25T11:25:00.204Z,22.85
2022-09-25T11:27:35.586Z,26.58
2022-09-25T11:30:07.643Z,25.20
2022-09-25T11:32:51.665Z,24.95
2022-09-25T11:35:44.157Z,26.05
2022-09-25T11:38:41.206Z,28.45
2022-09-25T11:41:20.459Z,26.80
2022-09-25T11:43:58.959Z,27.70
2022-09-25T11:46:35.287Z,26.95
2022-09-25T11:49:16.271Z,24.20
2022-09-25T11:52:08.397Z,27.27
2022-09-25T11:54:53.734Z,24.20
2022-09-25T11:57:34.432Z,21.00
2022-09-25T12:00:11.520Z,22.13
2022-09-25T12:02:55.294Z,17.73
2022-09-25T12:05:51.565Z,19.92
2022-09-25T12:08:35.693Z,18.30
2022-09-25T12:11:19.382Z,20.42
2022-09-25T12:13:55.958Z,16.15
2022-09-25T12:16:34.877Z,14.23
2022-09-25T12:19:24.398Z,13.75
2022-09-25T12:21:59.284Z,15.75
2022-09-25T12:24:41.237Z,11.88
2022-09-25T12:27:18.783Z,13.25
2022-09-25T12:30:11.852Z,10.70
2022-09-25T12:33:07.906Z,12.35
2022-09-25T12:35:52.166Z,11.52
2022-09-25T12:38:29.011Z,11.52
2022-09-25T12:41:04.252Z,9.27
2022-09-25T12:43:41.262Z,9.90
2022-09-25T12:46:14.910Z,7.72
2022-09-25T12:48:51.307Z,7.93
2022-09-25T12:51:39.296Z,8.43
2022-09-25T12:54:16.445Z,8.05
2022-09-25T12:56:54.198Z,9.70
2022-09-25T12:59:28.861Z,9.27
2022-09-25T13:02:03.258Z,7.55
2022-09-25T13:05:01.507Z,7.78
2022-09-25T13:07:37.291Z,8.18
2022-09-25T13:10:19.281Z,8.02
2022-09-25T13:12:51.011Z,9.30
2022-09-25T13:15:23.236Z,5.85
2022-09-25T13:17:51.747Z,9.98
2022-09-25T13:20:44.122Z,8.15
2022-09-25T13:23:14.942Z,10.05
2022-09-25T13:25:46.400Z,9.10
2022-09-25T13:28:22.795Z,7.28
2022-09-25T13:31:13.552Z,7.32
2022-09-25T13:33:48.611Z,7.25
2022-09-25T13:36:40.056Z,7.38
2022-09-25T13:39:39.255Z,7.07
2022-09-25T13:42:15.821Z,8.77
2022-09-25T13:45:08.971Z,7.15
2022-09-25T13:47:56.512Z,5.40
2022-09-25T13:59:40.259Z,9.60
2022-09-25T14:03:24.422Z,8.32
2022-09-25T14:07:07.456Z,10.23
2022-09-25T14:09:42.888Z,10.38
2022-09-25T14:12:20.723Z,10.30
2022-09-25T14:14:55.327Z,11.02
2022-09-25T14:17:28.215Z,8.35
2022-09-25T14:19:59.042Z,10.23
2022-09-25T14:22:36.263Z,7.63
2022-09-25T14:25:32.927Z,8.07
2022-09-25T14:28:04.155Z,8.98
2022-09-25T14:30:33.158Z,6.90
2022-09-25T14:33:17.955Z,6.97
2022-09-25T14:35:54.779Z,8.02
2022-09-25T14:38:54.570Z,8.50
2022-09-25T14:41:43.324Z,4.53
2022-09-25T14:44:25.645Z,4.75
2022-09-25T14:46:55.988Z,4.20
2022-09-25T14:49:27.588Z,7.88
2022-09-25T14:52:00.304Z,7.53
2022-09-25T14:54:38.017Z,8.90
2022-09-25T15:06:16.299Z,5.80
2022-09-25T15:08:44.945Z,5.75
2022-09-25T15:11:15.708Z,7.63
2022-09-25T15:13:44.831Z,6.95
2022-09-25T15:16:33.946Z,6.65
2022-09-25T15:19:04.253Z,7.32
2022-09-25T15:21:37.011Z,5.72
2022-09-25T15:24:11.719Z,6.30
2022-09-25T15:26:49.340Z,4.20
2022-09-25T15:29:21.313Z,3.70
2022-09-25T15:31:51.791Z,5.80
2022-09-25T15:34:25.409Z,4.65
2022-09-25T15:36:55.271Z,4.97
2022-09-25T15:39:26.102Z,5.80
2022-09-25T15:41:55.390Z,6.03
2022-09-25T15:44:25.072Z,4.22
2022-09-25T15:46:55.411Z,5.05
2022-09-25T15:49:28.284Z,5.03
2022-09-25T15:52:01.019Z,4.43
2022-09-25T15:54:35.653Z,4.45
2022-09-25T15:57:07.192Z,4.05
2022-09-25T16:00:00.077Z,7.05
2022-09-25T16:02:51.820Z,3.85
2022-09-25T16:05:25.655Z,4.72
2022-09-25T16:08:17.157Z,4.47
2022-09-25T16:10:50.204Z,6.72
2022-09-25T16:13:21.486Z,5.28
2022-09-25T16:15:51.895Z,5.45
2022-09-25T16:18:32.768Z,7.90
2022-09-25T16:21:15.626Z,6.30
2022-09-25T16:23:56.171Z,8.50
2022-09-25T16:26:27.519Z,8.38
2022-09-25T16:29:05.086Z,7.63
2022-09-25T16:31:35.221Z,8.05
2022-09-25T16:34:04.975Z,4.55
2022-09-25T16:36:41.555Z,9.00
2022-09-25T16:39:31.329Z,4.50
2022-09-25T16:42:00.607Z,5.05
2022-09-25T16:44:47.307Z,5.25
2022-09-25T16:47:18.807Z,4.78
2022-09-25T16:49:48.788Z,8.85
2022-09-25T16:52:21.754Z,7.45
2022-09-25T16:54:54.261Z,6.68
2022-09-25T16:57:23.694Z,7.20
2022-09-25T16:59:52.642Z,8.40
2022-09-25T17:02:32.717Z,6.53
2022-09-25T17:05:05.135Z,5.90
2022-09-25T17:07:33.368Z,8.32
2022-09-25T17:10:03.770Z,6.10
2022-09-25T17:12:32.985Z,6.35
2022-09-25T17:15:01.919Z,8.52
2022-09-25T17:17:31.072Z,5.78
2022-09-25T17:19:59.410Z,6.53
2022-09-25T17:22:30.228Z,7.60
2022-09-25T17:25:03.040Z,7.90
2022-09-25T17:27:31.174Z,8.18
2022-09-25T17:29:59.930Z,5.65
2022-09-25T17:32:29.317Z,8.20
2022-09-25T17:34:58.525Z,11.35
2022-09-25T17:37:26.658Z,10.82
2022-09-25T17:39:54.915Z,11.52
2022-09-25T17:42:26.291Z,7.45
2022-09-25T17:44:55.007Z,8.05
2022-09-25T17:47:27.563Z,6.55
2022-09-25T17:49:57.675Z,9.60
2022-09-25T17:52:26.529Z,8.82
2022-09-25T17:54:54.814Z,6.93
2022-09-25T17:57:27.581Z,7.38
2022-09-25T17:59:55.919Z,7.70
2022-09-25T18:02:28.919Z,8.85
2022-09-25T18:04:57.375Z,8.77
2022-09-25T18:07:28.720Z,11.43
2022-09-25T18:09:59.402Z,9.40
2022-09-25T18:12:30.235Z,10.52
2022-09-25T18:14:58.296Z,8.18
2022-09-25T18:17:29.115Z,7.57
2022-09-25T18:20:14.943Z,7.78
2022-09-25T18:22:44.519Z,7.30
2022-09-25T18:25:12.755Z,7.13
2022-09-25T18:27:42.910Z,6.82
2022-09-25T18:30:15.055Z,8.57
2022-09-25T18:32:44.218Z,10.48
2022-09-25T18:35:15.071Z,9.85
2022-09-25T18:37:45.278Z,7.70
2022-09-25T18:40:15.052Z,8.93
2022-09-25T18:42:45.050Z,10.93
2022-09-25T18:45:14.837Z,11.25
2022-09-25T18:47:44.158Z,9.25
2022-09-25T18:50:15.519Z,7.60
2022-09-25T18:52:49.924Z,10.32
2022-09-25T18:55:18.633Z,11.57
2022-09-25T18:57:48.707Z,6.82
2022-09-25T19:00:20.327Z,11.35
2022-09-25T19:02:48.866Z,9.30
2022-09-25T19:05:17.551Z,9.63
2022-09-25T19:07:45.870Z,11.05
2022-09-25T19:10:16.300Z,9.52
2022-09-25T19:12:46.259Z,9.95
2022-09-25T19:15:19.739Z,8.63
2022-09-25T19:17:49.560Z,8.63
2022-09-25T19:20:18.083Z,7.78
2022-09-25T19:22:46.203Z,7.57
2022-09-25T19:25:16.865Z,8.23
2022-09-25T19:27:48.825Z,8.77
2022-09-25T19:30:17.277Z,9.65
2022-09-25T19:32:46.865Z,10.40
2022-09-25T19:35:15.109Z,9.57
2022-09-25T19:37:43.679Z,9.80
2022-09-25T19:40:39.915Z,8.98
2022-09-25T19:43:09.250Z,9.32
2022-09-25T19:45:37.449Z,12.80
2022-09-25T19:48:08.026Z,6.78
2022-09-25T19:50:41.104Z,6.65
2022-09-25T19:53:09.282Z,10.10
2022-09-25T19:55:37.979Z,6.63
2022-09-25T19:58:06.417Z,10.90
2022-09-25T20:00:35.094Z,7.53
2022-09-25T20:03:03.258Z,11.25
2022-09-25T20:05:37.383Z,6.05
2022-09-25T20:08:05.616Z,7.72
2022-09-25T20:10:34.206Z,8.25
2022-09-25T20:13:02.770Z,9.38
2022-09-25T20:15:31.634Z,7.97
2022-09-25T20:18:00.208Z,11.32
2022-09-25T20:20:29.601Z,9.95
2022-09-25T20:22:59.817Z,8.43
2022-09-25T20:25:28.797Z,7.72
2022-09-25T20:27:57.556Z,7.45
2022-09-25T20:30:26.263Z,7.03
2022-09-25T20:32:54.428Z,10.88
2022-09-25T20:35:22.989Z,9.50
2022-09-25T20:37:51.207Z,8.70
2022-09-25T20:40:20.770Z,9.93
2022-09-25T20:42:49.480Z,9.80
2022-09-25T20:45:21.924Z,11.68
2022-09-25T20:47:51.009Z,12.30
2022-09-25T20:50:19.276Z,9.88
2022-09-25T20:52:47.577Z,8.88
2022-09-25T20:55:16.050Z,9.07
2022-09-25T20:57:45.588Z,7.85
2022-09-25T21:00:19.074Z,10.93
2022-09-25T21:02:47.723Z,7.85
2022-09-25T21:05:16.446Z,9.52
2022-09-25T21:07:44.866Z,9.30
2022-09-25T21:10:12.955Z,7.15
2022-09-25T21:12:41.045Z,9.50
2022-09-25T21:15:11.038Z,6.90
2022-09-25T21:17:39.100Z,11.45
2022-09-25T21:20:07.651Z,8.80
2022-09-25T21:22:35.842Z,8.50
2022-09-25T21:25:04.145Z,8.18
2022-09-25T21:27:32.307Z,10.45
2022-09-25T21:30:00.398Z,7.75
2022-09-25T21:32:31.261Z,11.07
2022-09-25T21:34:59.338Z,7.60
2022-09-25T21:37:27.682Z,11.68
2022-09-25T21:39:57.893Z,8.00
2022-09-25T21:42:26.090Z,11.73
2022-09-25T21:44:54.357Z,9.07
2022-09-25T21:47:22.606Z,10.88
2022-09-25T21:49:56.050Z,8.40
2022-09-25T21:52:26.024Z,12.05
2022-09-25T21:54:54.579Z,10.60
2022-09-25T21:57:22.996Z,7.72
2022-09-25T21:59:51.289Z,7.80
2022-09-25T22:02:19.624Z,7.90
2022-09-25T22:04:47.798Z,9.95
2022-09-25T22:07:17.964Z,8.65
2022-09-25T22:09:46.225Z,9.80
2022-09-25T22:12:14.360Z,9.63
2022-09-25T22:14:42.497Z,9.75
2022-09-25T22:17:11.182Z,8.55
2022-09-25T22:19:39.609Z,8.13
2022-09-25T22:22:07.858Z,12.55
2022-09-25T22:24:37.344Z,12.05
2022-09-25T22:27:05.504Z,8.48
2022-09-25T22:29:37.134Z,8.55
2022-09-25T22:32:05.269Z,12.70
2022-09-25T22:34:33.366Z,11.35
2022-09-25T22:37:01.579Z,7.93
2022-09-25T22:39:30.708Z,10.93
2022-09-25T22:42:00.186Z,7.10
2022-09-25T22:44:28.333Z,7.05
2022-09-25T22:46:57.515Z,8.77
2022-09-25T22:49:25.724Z,10.18
2022-09-25T22:51:53.867Z,10.55
2022-09-25T22:54:22.093Z,7.43
2022-09-25T22:56:53.938Z,8.93
2022-09-25T22:59:23.409Z,9.10
2022-09-25T23:01:53.722Z,10.90
2022-09-25T23:04:23.948Z,10.48
2022-09-25T23:06:52.713Z,11.95
2022-09-25T23:09:22.423Z,8.95
2022-09-25T23:11:53.084Z,9.55
2022-09-25T23:14:25.509Z,6.68
2022-09-25T23:16:55.663Z,8.05
2022-09-25T23:19:25.197Z,7.60
2022-09-25T23:21:54.517Z,11.40
2022-09-25T23:24:23.933Z,7.93
2022-09-25T23:26:53.163Z,10.63
2022-09-25T23:29:22.572Z,8.93
2022-09-25T23:31:52.584Z,8.23
2022-09-25T23:34:20.739Z,8.45
2022-09-25T23:36:48.837Z,7.43
2022-09-25T23:39:18.987Z,11.20
2022-09-25T23:41:47.535Z,9.60
2022-09-25T23:44:15.929Z,9.35
2022-09-25T23:46:44.933Z,10.35
2022-09-25T23:49:15.023Z,8.13
2022-09-25T23:51:43.423Z,10.10
2022-09-25T23:54:12.814Z,11.40
2022-09-25T23:56:41.370Z,9.82
2022-09-25T23:59:11.619Z,9.60
